Time;durP1;ratioP1;P1;durP2;ratioP2;P2;SDS_P1;SDS_P2;PMS_P1;PMS_P2;Temp;Humidity;BMP_temperature;BMP_pressure;BME280_temperature;BME280_humidity;BME280_pressure;Samples;Min_cycle;Max_cycle;Signal;HPM_P1;HPM_P2
2022/07/17 00:00:52;;;;;;;7.10;1.60;;;14.80;99.90;;;;;;5134091;28;20039;-82
2022/07/17 00:03:38;;;;;;;8.75;2.13;;;14.80;99.90;;;;;;5115640;28;20043;-83
2022/07/17 00:06:24;;;;;;;6.57;1.55;;;14.80;99.90;;;;;;5133480;28;20563;-82
2022/07/17 00:09:10;;;;;;;5.00;1.15;;;14.80;99.90;;;;;;5118901;28;20097;-83
2022/07/17 00:11:57;;;;;;;5.75;1.17;;;14.80;99.90;;;;;;5115065;28;20051;-83
2022/07/17 00:14:43;;;;;;;6.28;1.27;;;14.70;99.90;;;;;;5115279;28;20126;-84
2022/07/17 00:17:29;;;;;;;10.50;1.60;;;14.70;99.90;;;;;;5130324;28;20436;-83
2022/07/17 00:20:15;;;;;;;3.28;1.02;;;14.70;99.90;;;;;;5131037;27;20082;-84
2022/07/17 00:23:02;;;;;;;4.07;1.40;;;14.60;99.90;;;;;;5138599;27;20047;-83
2022/07/17 00:25:48;;;;;;;14.80;2.55;;;14.60;99.90;;;;;;5119536;27;20115;-83
2022/07/17 00:28:34;;;;;;;7.05;1.20;;;14.60;99.90;;;;;;5116670;27;20054;-83
2022/07/17 00:31:20;;;;;;;3.47;1.00;;;14.60;99.90;;;;;;5118594;27;20043;-83
2022/07/17 00:34:07;;;;;;;5.85;1.10;;;14.50;99.90;;;;;;5134162;27;20436;-81
2022/07/17 00:36:56;;;;;;;7.38;1.30;;;14.50;99.90;;;;;;5132722;27;20058;-83
2022/07/17 00:39:42;;;;;;;4.80;1.10;;;14.50;99.90;;;;;;5115985;27;20047;-83
2022/07/17 00:42:28;;;;;;;5.35;1.20;;;14.40;99.90;;;;;;5134836;27;20050;-82
2022/07/17 00:45:15;;;;;;;4.80;1.83;;;14.40;99.90;;;;;;5105399;27;20058;-82
2022/07/17 00:48:07;;;;;;;7.70;1.63;;;14.40;99.90;;;;;;5138269;27;20137;-83
2022/07/17 00:50:54;;;;;;;5.68;1.08;;;14.30;99.90;;;;;;5133610;27;20074;-83
2022/07/17 00:53:42;;;;;;;4.82;1.60;;;14.30;99.90;;;;;;5133588;27;20138;-83
2022/07/17 00:56:28;;;;;;;6.65;1.65;;;14.30;99.90;;;;;;5115980;27;20043;-83
2022/07/17 00:59:19;;;;;;;7.30;1.45;;;14.20;99.90;;;;;;5101923;27;20051;-82
2022/07/17 01:02:07;;;;;;;3.50;1.20;;;14.20;99.90;;;;;;5132972;27;20229;-82
2022/07/17 01:04:53;;;;;;;6.82;2.17;;;14.20;99.90;;;;;;5133213;27;20047;-82
2022/07/17 01:07:39;;;;;;;5.10;1.25;;;14.20;99.90;;;;;;5115824;27;20399;-82
2022/07/17 01:10:26;;;;;;;4.53;1.48;;;14.10;99.90;;;;;;5134421;27;20039;-82
2022/07/17 01:13:12;;;;;;;8.18;2.63;;;14.10;99.90;;;;;;5125974;27;20043;-83
2022/07/17 01:15:58;;;;;;;5.57;1.90;;;14.10;99.90;;;;;;5133330;27;20398;-82
2022/07/17 01:18:44;;;;;;;5.85;1.75;;;14.00;99.90;;;;;;5132969;27;20327;-83
2022/07/17 01:21:41;;;;;;;10.63;2.08;;;14.00;99.90;;;;;;5133246;27;20070;-83
2022/07/17 01:24:27;;;;;;;11.43;3.95;;;14.00;99.90;;;;;;5132870;27;20486;-82
2022/07/17 01:27:15;;;;;;;12.02;1.85;;;14.00;99.90;;;;;;5117374;27;20058;-83
2022/07/17 01:30:02;;;;;;;8.55;2.40;;;13.90;99.90;;;;;;5123220;27;20100;-83
2022/07/17 01:32:48;;;;;;;4.55;1.92;;;13.90;99.90;;;;;;5119054;27;20039;-80
2022/07/17 01:35:34;;;;;;;7.50;2.53;;;13.80;99.90;;;;;;5115460;27;20079;-82
2022/07/17 01:38:21;;;;;;;7.15;2.88;;;13.80;99.90;;;;;;5132197;27;20083;-81
2022/07/17 01:41:07;;;;;;;11.20;2.40;;;13.80;99.90;;;;;;5132972;27;20090;-81
2022/07/17 01:43:53;;;;;;;7.18;2.30;;;13.70;99.90;;;;;;5115801;27;20055;-81
2022/07/17 01:46:39;;;;;;;6.80;1.90;;;13.70;99.90;;;;;;5113713;27;20050;-82
2022/07/17 01:49:25;;;;;;;8.57;2.05;;;13.70;99.90;;;;;;5132514;27;20039;-81
2022/07/17 01:52:12;;;;;;;6.85;2.40;;;13.60;99.90;;;;;;5116734;27;20084;-82
2022/07/17 01:54:58;;;;;;;6.22;1.92;;;13.60;99.90;;;;;;5134419;27;20051;-82
2022/07/17 01:57:44;;;;;;;7.18;1.90;;;13.60;99.90;;;;;;5132695;27;20061;-82
2022/07/17 02:00:31;;;;;;;6.40;1.98;;;13.50;99.90;;;;;;5133850;27;20398;-81
2022/07/17 02:03:17;;;;;;;5.53;1.92;;;13.50;99.90;;;;;;5118318;27;20047;-82
2022/07/17 02:06:03;;;;;;;4.70;1.60;;;13.40;99.90;;;;;;5137178;27;20054;-81
2022/07/17 02:08:50;;;;;;;4.90;1.92;;;13.40;99.90;;;;;;5136981;27;20050;-82
2022/07/17 02:11:37;;;;;;;5.32;1.35;;;13.30;99.90;;;;;;5135020;27;20111;-82
2022/07/17 02:14:24;;;;;;;5.95;1.55;;;13.30;99.90;;;;;;5109037;27;20589;-82
2022/07/17 02:17:10;;;;;;;5.40;1.50;;;13.20;99.90;;;;;;5120586;27;20050;-82
2022/07/17 02:19:57;;;;;;;7.43;1.60;;;13.20;99.90;;;;;;5132772;27;20053;-82
2022/07/17 02:22:44;;;;;;;5.68;1.70;;;13.10;99.90;;;;;;5132252;27;20112;-81
2022/07/17 02:25:31;;;;;;;4.60;1.50;;;13.10;99.90;;;;;;5101347;27;20036;-81
2022/07/17 02:28:17;;;;;;;5.20;1.63;;;13.10;99.90;;;;;;5132242;27;20459;-82
2022/07/17 02:31:04;;;;;;;5.38;2.05;;;13.00;99.90;;;;;;5134217;27;20049;-83
2022/07/17 02:33:50;;;;;;;6.70;2.33;;;13.00;99.90;;;;;;5117514;27;20047;-82
2022/07/17 02:36:36;;;;;;;8.23;3.05;;;13.00;99.90;;;;;;5112343;27;20138;-82
2022/07/17 02:39:22;;;;;;;7.82;2.50;;;13.00;99.90;;;;;;5113979;27;20058;-83
2022/07/17 02:42:09;;;;;;;6.28;2.00;;;13.00;99.90;;;;;;5130683;27;20046;-83
2022/07/17 02:44:57;;;;;;;6.43;1.98;;;12.90;99.90;;;;;;5113297;27;20107;-83
2022/07/17 02:47:43;;;;;;;6.25;2.20;;;12.90;99.90;;;;;;5131516;27;20089;-83
2022/07/17 02:50:29;;;;;;;7.70;2.38;;;12.90;99.90;;;;;;5100676;27;20050;-82
2022/07/17 02:53:15;;;;;;;4.38;1.98;;;12.90;99.90;;;;;;5102330;27;20055;-83
2022/07/17 02:56:02;;;;;;;5.22;1.73;;;13.00;99.90;;;;;;5113244;27;20061;-83
2022/07/17 02:58:48;;;;;;;7.47;2.35;;;13.00;99.90;;;;;;5130688;27;20057;-83
2022/07/17 03:01:34;;;;;;;7.75;2.78;;;13.00;99.90;;;;;;5099915;27;20134;-82
2022/07/17 03:04:21;;;;;;;14.40;2.45;;;13.00;99.90;;;;;;5115034;27;20051;-83
2022/07/17 03:07:07;;;;;;;9.80;2.63;;;13.00;99.90;;;;;;5134311;28;20141;-83
2022/07/17 03:09:53;;;;;;;7.43;2.30;;;13.10;99.90;;;;;;5085875;28;20055;-82
2022/07/17 03:12:40;;;;;;;5.57;2.20;;;13.10;99.90;;;;;;5113146;28;20054;-82
2022/07/17 03:15:28;;;;;;;5.20;2.55;;;13.10;99.90;;;;;;5132480;28;20078;-83
2022/07/17 03:18:14;;;;;;;11.13;2.28;;;13.10;99.90;;;;;;5113174;28;20546;-83
2022/07/17 03:21:01;;;;;;;10.48;2.90;;;13.20;99.90;;;;;;5112450;28;20044;-82
2022/07/17 03:23:47;;;;;;;7.55;2.53;;;13.20;99.90;;;;;;5112872;28;20073;-84
2022/07/17 03:26:33;;;;;;;9.20;2.78;;;13.20;99.90;;;;;;5131665;28;20054;-82
2022/07/17 03:29:19;;;;;;;8.85;2.80;;;13.30;99.90;;;;;;5131162;28;20082;-82
2022/07/17 03:32:06;;;;;;;9.05;2.80;;;13.40;99.90;;;;;;5130197;28;20092;-82
2022/07/17 03:34:52;;;;;;;6.68;2.60;;;13.40;99.90;;;;;;5131853;28;20390;-82
2022/07/17 03:37:39;;;;;;;6.25;2.10;;;13.50;99.90;;;;;;5098998;28;20062;-82
2022/07/17 03:40:25;;;;;;;8.23;2.78;;;13.50;99.90;;;;;;5130746;28;20047;-82
2022/07/17 03:43:12;;;;;;;12.93;2.90;;;13.50;99.90;;;;;;5118462;28;20047;-82
2022/07/17 03:45:58;;;;;;;6.90;2.25;;;13.60;99.90;;;;;;5132552;28;20043;-82
2022/07/17 03:48:45;;;;;;;5.75;2.05;;;13.60;99.90;;;;;;5132976;28;20410;-82
2022/07/17 03:51:31;;;;;;;10.50;2.15;;;13.60;99.90;;;;;;5118123;28;20108;-82
2022/07/17 03:54:17;;;;;;;6.85;2.03;;;13.60;99.90;;;;;;5101169;27;20081;-82
2022/07/17 03:57:03;;;;;;;7.68;2.75;;;13.60;99.90;;;;;;5113335;28;20043;-82
2022/07/17 03:59:50;;;;;;;8.02;2.10;;;13.60;99.90;;;;;;5115052;28;20509;-82
2022/07/17 04:02:36;;;;;;;7.70;2.95;;;13.70;99.90;;;;;;5113316;28;20048;-82
2022/07/17 04:05:22;;;;;;;9.23;2.50;;;13.70;99.90;;;;;;5114277;28;20056;-82
2022/07/17 04:08:08;;;;;;;9.85;2.65;;;13.70;99.90;;;;;;5115786;28;20081;-82
2022/07/17 04:10:54;;;;;;;4.63;1.83;;;13.80;99.90;;;;;;5115679;28;20048;-83
2022/07/17 04:13:41;;;;;;;10.57;2.65;;;13.70;99.90;;;;;;5113516;28;20050;-82
2022/07/17 04:16:27;;;;;;;7.68;2.47;;;13.80;99.90;;;;;;5113698;28;20075;-83
2022/07/17 04:19:13;;;;;;;6.38;1.90;;;13.80;99.90;;;;;;5112518;28;20048;-82
2022/07/17 04:21:59;;;;;;;9.57;2.33;;;13.80;99.90;;;;;;5112991;28;20364;-83
2022/07/17 04:24:46;;;;;;;9.13;2.85;;;13.80;99.90;;;;;;5114285;28;20079;-83
2022/07/17 04:27:32;;;;;;;4.80;2.35;;;13.80;99.90;;;;;;5113956;28;20051;-83
2022/07/17 04:30:18;;;;;;;7.22;3.10;;;13.80;99.90;;;;;;5114232;28;20058;-82
2022/07/17 04:33:04;;;;;;;9.05;3.10;;;13.80;99.90;;;;;;5113295;28;20036;-81
2022/07/17 04:35:51;;;;;;;6.45;2.88;;;13.90;99.90;;;;;;5111847;28;20058;-81
2022/07/17 04:38:37;;;;;;;11.35;3.97;;;13.90;99.90;;;;;;5113697;28;20058;-83
2022/07/17 04:41:23;;;;;;;13.15;3.97;;;13.90;99.90;;;;;;5113968;28;20044;-83
2022/07/17 04:44:09;;;;;;;10.02;3.75;;;14.00;99.90;;;;;;5112947;28;20065;-82
2022/07/17 04:46:56;;;;;;;8.75;3.22;;;14.00;99.90;;;;;;5115754;28;20044;-82
2022/07/17 04:49:42;;;;;;;7.13;2.67;;;14.00;99.90;;;;;;5113306;28;20047;-83
2022/07/17 04:52:28;;;;;;;14.07;2.90;;;14.00;99.90;;;;;;5112880;28;20047;-82
2022/07/17 04:55:14;;;;;;;8.07;3.90;;;14.00;99.90;;;;;;5112214;28;20127;-83
2022/07/17 04:58:01;;;;;;;10.65;3.05;;;14.00;99.90;;;;;;5131318;27;20058;-83
2022/07/17 05:00:47;;;;;;;9.13;2.42;;;13.90;99.90;;;;;;5135895;27;20060;-84
2022/07/17 05:03:33;;;;;;;11.10;2.53;;;14.00;99.90;;;;;;5108057;27;20086;-83
2022/07/17 05:06:20;;;;;;;11.30;2.53;;;14.00;99.90;;;;;;5138392;27;20066;-82
2022/07/17 05:09:06;;;;;;;9.93;2.75;;;14.00;99.90;;;;;;5132309;27;20077;-82
2022/07/17 05:11:52;;;;;;;9.55;2.25;;;14.10;99.90;;;;;;5134129;27;20050;-82
2022/07/17 05:14:38;;;;;;;9.27;2.13;;;14.10;99.90;;;;;;5132298;27;20391;-83
2022/07/17 05:17:25;;;;;;;6.80;2.33;;;14.10;99.90;;;;;;5132303;27;20047;-83
2022/07/17 05:20:11;;;;;;;5.18;2.05;;;14.20;99.90;;;;;;5131640;27;20043;-84
2022/07/17 05:22:57;;;;;;;9.30;2.05;;;14.20;99.90;;;;;;5135372;27;20104;-84
2022/07/17 05:25:44;;;;;;;5.50;1.70;;;14.30;99.90;;;;;;5116805;27;20047;-83
2022/07/17 05:28:30;;;;;;;5.22;2.15;;;14.30;99.90;;;;;;5113081;27;20062;-82
2022/07/17 05:31:17;;;;;;;7.20;1.80;;;14.40;99.90;;;;;;5133227;27;20596;-82
2022/07/17 05:34:03;;;;;;;6.72;2.03;;;14.50;99.90;;;;;;5132973;27;20505;-82
2022/07/17 05:36:49;;;;;;;6.35;1.80;;;14.50;99.90;;;;;;5131952;27;20050;-83
2022/07/17 05:39:35;;;;;;;5.70;1.67;;;14.60;99.90;;;;;;5134488;27;20050;-83
2022/07/17 05:42:22;;;;;;;6.93;1.67;;;14.70;99.90;;;;;;5140168;27;20126;-82
2022/07/17 05:45:08;;;;;;;4.32;1.60;;;14.80;99.90;;;;;;5133267;27;20130;-83
2022/07/17 05:47:54;;;;;;;5.72;1.50;;;14.90;99.90;;;;;;5131627;27;20043;-83
2022/07/17 05:50:40;;;;;;;7.70;1.50;;;15.00;99.90;;;;;;5132705;27;20072;-82
2022/07/17 05:53:27;;;;;;;5.80;1.65;;;15.10;99.90;;;;;;5133039;27;20498;-83
2022/07/17 05:56:20;;;;;;;8.88;1.83;;;15.20;99.90;;;;;;5131838;27;20047;-83
2022/07/17 05:59:07;;;;;;;9.88;2.00;;;15.30;99.90;;;;;;5132313;27;20410;-84
2022/07/17 06:01:54;;;;;;;5.53;1.40;;;15.40;99.90;;;;;;5133798;27;20043;-84
2022/07/17 06:04:40;;;;;;;9.95;1.70;;;15.60;99.90;;;;;;5103295;27;20525;-83
2022/07/17 06:07:27;;;;;;;6.95;1.58;;;15.80;99.90;;;;;;5133079;27;20078;-84
2022/07/17 06:10:13;;;;;;;7.50;1.55;;;16.20;99.90;;;;;;5100897;27;20047;-83
2022/07/17 06:12:59;;;;;;;5.97;1.83;;;16.20;99.90;;;;;;5131186;27;20039;-83
2022/07/17 06:15:46;;;;;;;17.90;1.85;;;16.20;99.90;;;;;;5115059;27;20047;-83
2022/07/17 06:18:32;;;;;;;5.72;1.55;;;16.30;99.90;;;;;;5112704;27;20143;-83
2022/07/17 06:21:18;;;;;;;9.57;1.60;;;16.30;99.90;;;;;;5132431;27;20466;-83
2022/07/17 06:24:05;;;;;;;7.85;1.90;;;16.30;99.90;;;;;;5132475;27;20074;-82
2022/07/17 06:26:51;;;;;;;9.02;1.77;;;16.30;99.90;;;;;;5132621;27;20039;-83
2022/07/17 06:29:38;;;;;;;6.35;1.50;;;16.20;99.90;;;;;;5131797;27;20043;-82
2022/07/17 06:32:24;;;;;;;6.03;1.23;;;16.10;99.90;;;;;;5135326;27;20108;-83
2022/07/17 06:35:11;;;;;;;6.55;1.98;;;16.10;99.90;;;;;;5115603;27;20126;-83
2022/07/17 06:37:57;;;;;;;9.68;1.88;;;16.10;99.90;;;;;;5116777;27;20046;-83
2022/07/17 06:40:44;;;;;;;7.72;1.98;;;16.20;99.90;;;;;;5131655;27;20047;-83
2022/07/17 06:43:30;;;;;;;7.60;1.65;;;16.20;99.90;;;;;;5099462;27;20047;-82
2022/07/17 06:46:16;;;;;;;7.25;1.40;;;16.10;99.90;;;;;;5130465;27;20054;-81
2022/07/17 06:49:03;;;;;;;7.93;1.67;;;16.20;99.90;;;;;;5116710;27;20138;-83
2022/07/17 06:51:50;;;;;;;6.10;1.83;;;16.30;99.90;;;;;;5132577;27;20189;-83
2022/07/17 06:54:36;;;;;;;6.68;1.40;;;16.30;99.90;;;;;;5112024;27;20043;-82
2022/07/17 06:57:22;;;;;;;10.07;1.70;;;16.40;99.90;;;;;;5111015;28;20052;-83
2022/07/17 07:00:09;;;;;;;4.13;1.20;;;16.50;99.90;;;;;;5110701;28;20152;-83
2022/07/17 07:02:56;;;;;;;9.43;1.67;;;16.50;99.90;;;;;;5109740;28;20047;-81
2022/07/17 07:05:42;;;;;;;5.53;1.40;;;16.60;99.90;;;;;;5111408;28;20160;-82
2022/07/17 07:08:28;;;;;;;7.45;1.30;;;16.60;99.90;;;;;;5111266;28;20040;-82
2022/07/17 07:11:15;;;;;;;6.07;1.10;;;16.70;99.90;;;;;;5111897;28;20054;-82
2022/07/17 07:14:01;;;;;;;5.10;1.02;;;16.80;99.90;;;;;;5111906;28;20043;-82
2022/07/17 07:16:47;;;;;;;6.38;1.20;;;16.80;99.90;;;;;;5110682;28;20130;-83
2022/07/17 07:19:33;;;;;;;5.93;1.00;;;17.00;99.90;;;;;;5111126;28;20043;-83
2022/07/17 07:22:20;;;;;;;6.25;1.27;;;17.10;99.90;;;;;;5110945;28;20107;-84
2022/07/17 07:25:06;;;;;;;5.43;1.05;;;17.20;99.90;;;;;;5111630;28;20075;-82
2022/07/17 07:27:53;;;;;;;5.63;1.13;;;17.30;99.90;;;;;;5111489;28;20380;-82
2022/07/17 07:30:39;;;;;;;10.63;1.90;;;17.50;99.90;;;;;;5112254;28;20055;-82
2022/07/17 07:33:25;;;;;;;3.17;0.88;;;17.60;99.90;;;;;;5114962;28;20054;-83
2022/07/17 07:36:12;;;;;;;6.10;1.30;;;17.80;99.90;;;;;;5114533;28;20127;-83
2022/07/17 07:38:58;;;;;;;6.40;1.20;;;18.00;99.90;;;;;;5099674;28;20418;-83
2022/07/17 07:41:45;;;;;;;7.10;1.60;;;18.30;99.90;;;;;;5115391;28;20040;-84
2022/07/17 07:44:31;;;;;;;5.07;1.00;;;18.50;99.90;;;;;;5116138;28;20052;-81
2022/07/17 07:47:17;;;;;;;5.05;1.30;;;18.70;99.90;;;;;;5116224;28;20095;-81
2022/07/17 07:50:04;;;;;;;8.27;1.48;;;18.80;99.90;;;;;;5115387;28;20046;-81
2022/07/17 07:52:51;;;;;;;7.40;1.42;;;19.00;99.90;;;;;;5114987;28;20051;-82
2022/07/17 07:55:38;;;;;;;9.95;2.83;;;19.20;99.90;;;;;;5114842;28;20381;-82
2022/07/17 07:58:24;;;;;;;3.83;1.15;;;19.20;99.90;;;;;;5113955;28;20047;-82
2022/07/17 08:01:10;;;;;;;6.70;1.45;;;19.10;99.90;;;;;;5101147;28;20078;-81
2022/07/17 08:03:57;;;;;;;5.30;1.23;;;19.40;99.90;;;;;;5115187;28;20059;-82
2022/07/17 08:06:43;;;;;;;4.57;1.10;;;19.40;99.90;;;;;;5116112;28;20580;-82
2022/07/17 08:09:29;;;;;;;5.85;1.52;;;19.60;99.90;;;;;;5101267;28;20376;-82
2022/07/17 08:12:16;;;;;;;9.88;1.23;;;19.60;99.90;;;;;;5115521;28;20341;-83
2022/07/17 08:15:04;;;;;;;4.68;1.02;;;19.60;99.90;;;;;;5115423;28;20050;-83
2022/07/17 08:17:53;;;;;;;5.30;1.60;;;19.60;99.90;;;;;;5101931;28;20077;-81
2022/07/17 08:20:39;;;;;;;4.25;1.02;;;19.70;99.90;;;;;;5115573;28;20036;-81
2022/07/17 08:23:27;;;;;;;5.80;1.00;;;20.00;99.90;;;;;;5100607;28;20040;-82
2022/07/17 08:26:13;;;;;;;5.05;1.55;;;20.00;99.90;;;;;;5113948;28;20429;-82
2022/07/17 08:28:59;;;;;;;5.43;1.10;;;20.20;99.90;;;;;;5115145;28;20040;-81
2022/07/17 08:31:46;;;;;;;4.75;0.98;;;20.20;99.90;;;;;;5101876;28;20081;-82
2022/07/17 08:34:32;;;;;;;8.60;1.08;;;20.30;99.90;;;;;;5100723;28;20055;-82
2022/07/17 08:37:19;;;;;;;5.40;0.80;;;20.20;99.80;;;;;;5114749;28;20612;-81
2022/07/17 08:40:05;;;;;;;7.80;1.42;;;20.50;99.90;;;;;;5098742;28;20146;-81
2022/07/17 08:42:53;;;;;;;3.42;0.90;;;20.50;99.90;;;;;;5098675;28;20592;-80
2022/07/17 08:45:40;;;;;;;5.53;1.25;;;20.60;99.90;;;;;;5114112;28;20043;-81
2022/07/17 08:48:28;;;;;;;7.50;0.85;;;20.70;99.80;;;;;;5112280;28;20048;-81
2022/07/17 08:51:17;;;;;;;7.53;1.77;;;21.10;99.20;;;;;;5114328;28;20123;-85
2022/07/17 08:54:03;;;;;;;3.53;1.00;;;21.30;98.80;;;;;;5113792;28;20047;-81
2022/07/17 08:56:50;;;;;;;4.45;0.95;;;21.10;98.60;;;;;;5123159;27;20051;-82
2022/07/17 08:59:36;;;;;;;4.43;1.05;;;21.30;98.60;;;;;;5105703;27;20047;-82
2022/07/17 09:02:23;;;;;;;7.45;1.10;;;21.30;98.70;;;;;;5117183;27;20047;-82
2022/07/17 09:05:09;;;;;;;6.93;1.10;;;21.50;98.50;;;;;;5133575;27;20371;-80
2022/07/17 09:07:55;;;;;;;3.28;0.98;;;21.80;98.10;;;;;;5133881;27;20739;-82
2022/07/17 09:10:43;;;;;;;5.35;0.90;;;22.00;97.90;;;;;;5114257;27;20524;-82
2022/07/17 09:13:31;;;;;;;5.18;0.95;;;22.00;97.60;;;;;;5132368;27;20134;-82
2022/07/17 09:16:17;;;;;;;5.28;0.80;;;22.10;97.20;;;;;;5131852;27;20043;-82
2022/07/17 09:19:03;;;;;;;4.28;1.05;;;22.30;97.10;;;;;;5131939;27;20054;-83
2022/07/17 09:21:50;;;;;;;6.03;1.00;;;22.20;96.40;;;;;;5131844;27;20103;-80
2022/07/17 09:24:49;;;;;;;3.53;1.08;;;22.30;96.40;;;;;;5131688;27;20147;-79
2022/07/17 09:27:35;;;;;;;8.95;1.30;;;22.40;96.50;;;;;;5132671;27;20138;-82
2022/07/17 09:30:22;;;;;;;3.75;0.70;;;22.60;96.60;;;;;;5118782;27;20100;-82
2022/07/17 09:33:14;;;;;;;6.70;1.15;;;22.90;96.30;;;;;;5133454;27;20046;-82
2022/07/17 09:36:09;;;;;;;10.38;1.55;;;22.90;96.10;;;;;;5117286;27;20467;-82
2022/07/17 09:38:58;;;;;;;2.97;1.05;;;22.80;95.30;;;;;;5134854;27;20151;-82
2022/07/17 09:41:44;;;;;;;3.33;1.05;;;23.00;95.60;;;;;;5135253;27;20586;-83
2022/07/17 09:44:30;;;;;;;2.95;1.02;;;22.90;95.30;;;;;;5139015;27;20487;-81
2022/07/17 09:47:17;;;;;;;5.15;1.08;;;22.90;94.80;;;;;;5138231;27;20387;-82
2022/07/17 09:50:06;;;;;;;3.45;0.88;;;23.20;94.90;;;;;;5135805;27;20127;-80
2022/07/17 09:52:55;;;;;;;4.45;0.98;;;23.50;94.80;;;;;;5133075;27;20043;-81
2022/07/17 09:55:43;;;;;;;4.25;0.95;;;23.40;94.10;;;;;;5132201;27;20488;-82
2022/07/17 09:58:34;;;;;;;4.90;1.15;;;23.50;93.90;;;;;;5114240;27;20508;-81
2022/07/17 10:01:20;;;;;;;5.28;0.90;;;23.90;93.50;;;;;;5131726;27;20050;-82
2022/07/17 10:04:07;;;;;;;2.33;0.80;;;23.90;92.80;;;;;;5117668;27;20043;-81
2022/07/17 10:06:54;;;;;;;2.67;0.90;;;24.10;92.90;;;;;;5131295;27;20066;-81
2022/07/17 10:09:41;;;;;;;4.32;0.98;;;23.90;92.50;;;;;;5132006;27;20066;-80
2022/07/17 10:12:27;;;;;;;2.72;1.08;;;24.20;92.30;;;;;;5117093;27;20055;-80
2022/07/17 10:15:14;;;;;;;4.82;1.23;;;24.30;92.30;;;;;;5132226;27;20108;-81
2022/07/17 10:18:07;;;;;;;4.00;1.10;;;24.60;91.60;;;;;;5118191;27;20055;-82
2022/07/17 10:21:07;;;;;;;4.03;1.23;;;24.70;91.20;;;;;;5132438;27;20066;-82
2022/07/17 10:23:53;;;;;;;2.30;0.75;;;24.70;90.30;;;;;;5131973;27;20043;-81
2022/07/17 10:26:43;;;;;;;3.28;1.30;;;25.10;90.90;;;;;;5132064;27;20043;-81
2022/07/17 10:29:35;;;;;;;3.30;1.10;;;24.90;90.30;;;;;;5131961;27;20079;-82
2022/07/17 10:32:22;;;;;;;2.47;0.90;;;24.80;90.10;;;;;;5131465;27;20035;-82
2022/07/17 10:35:10;;;;;;;5.97;1.10;;;24.90;91.00;;;;;;5130926;27;20410;-81
2022/07/17 10:38:13;;;;;;;5.65;1.35;;;25.30;90.50;;;;;;5131846;27;20054;-82
2022/07/17 10:41:03;;;;;;;6.55;1.05;;;25.50;87.50;;;;;;5131395;27;20047;-84
2022/07/17 10:43:50;;;;;;;2.40;0.93;;;25.60;87.50;;;;;;5130949;27;20122;-83
2022/07/17 10:46:36;;;;;;;3.83;0.82;;;25.50;86.80;;;;;;5113953;27;20059;-82
2022/07/17 10:49:24;;;;;;;7.53;0.98;;;25.80;87.90;;;;;;5131971;27;20143;-82
2022/07/17 10:52:12;;;;;;;3.58;1.10;;;25.60;88.00;;;;;;5114496;27;20042;-82
2022/07/17 10:54:58;;;;;;;2.45;0.80;;;25.70;87.10;;;;;;5131888;27;20125;-83
2022/07/17 10:57:45;;;;;;;3.80;0.95;;;25.60;87.30;;;;;;5130558;27;20087;-82
2022/07/17 11:00:31;;;;;;;3.72;1.08;;;25.50;85.90;;;;;;5116977;27;20051;-81
2022/07/17 11:03:18;;;;;;;2.83;1.02;;;26.00;85.90;;;;;;5131800;27;20383;-82
2022/07/17 11:06:14;;;;;;;5.43;1.10;;;26.30;84.90;;;;;;5098919;27;20043;-82
2022/07/17 11:09:04;;;;;;;6.45;1.50;;;26.70;82.90;;;;;;5112139;28;20138;-80
2022/07/17 11:11:51;;;;;;;3.72;1.10;;;26.50;81.10;;;;;;5113402;28;20425;-80
2022/07/17 11:14:38;;;;;;;2.75;1.05;;;26.50;82.70;;;;;;5131928;28;20047;-83
2022/07/17 11:17:24;;;;;;;5.15;1.17;;;27.30;82.30;;;;;;5130467;28;20498;-82
2022/07/17 11:20:11;;;;;;;5.18;1.45;;;27.50;81.50;;;;;;5113218;28;20402;-81
2022/07/17 11:22:58;;;;;;;3.88;1.10;;;27.20;78.70;;;;;;5132777;28;20051;-83
2022/07/17 11:26:06;;;;;;;3.42;1.42;;;27.20;77.30;;;;;;5130173;28;20515;-82
2022/07/17 11:28:52;;;;;;;3.30;1.08;;;26.70;75.00;;;;;;5117717;28;20055;-82
2022/07/17 11:31:39;;;;;;;3.58;1.30;;;26.60;77.20;;;;;;5134397;28;20098;-82
2022/07/17 11:34:26;;;;;;;3.70;1.00;;;27.00;78.50;;;;;;5131317;28;20498;-83
2022/07/17 11:37:13;;;;;;;4.38;0.90;;;27.20;76.50;;;;;;5132653;28;20043;-81
2022/07/17 11:40:00;;;;;;;3.30;1.10;;;27.60;76.40;;;;;;5113086;28;20465;-83
2022/07/17 11:42:46;;;;;;;5.15;1.10;;;27.70;73.50;;;;;;5131336;28;20483;-82
2022/07/17 11:45:32;;;;;;;4.00;1.25;;;28.00;72.60;;;;;;5130226;28;20525;-81
2022/07/17 11:48:19;;;;;;;2.90;1.05;;;28.10;70.70;;;;;;5099088;28;20047;-79
2022/07/17 11:51:06;;;;;;;3.38;1.15;;;28.30;71.30;;;;;;5129888;28;20126;-82
2022/07/17 11:53:52;;;;;;;3.70;0.80;;;28.40;71.20;;;;;;5128987;28;20113;-83
2022/07/17 11:56:41;;;;;;;4.43;1.25;;;28.80;71.80;;;;;;5130599;28;20047;-82
2022/07/17 11:59:32;;;;;;;2.88;0.90;;;28.90;73.00;;;;;;5130248;28;20043;-82
2022/07/17 12:02:23;;;;;;;4.50;1.10;;;29.30;69.30;;;;;;5130653;28;20047;-82
2022/07/17 12:05:10;;;;;;;7.28;1.48;;;29.50;67.70;;;;;;5112124;28;20047;-83
2022/07/17 12:07:56;;;;;;;3.67;0.98;;;29.80;66.00;;;;;;5129718;28;20053;-80
2022/07/17 12:10:43;;;;;;;3.08;1.25;;;29.90;65.20;;;;;;5130558;28;20131;-82
2022/07/17 12:13:44;;;;;;;5.80;1.20;;;29.70;62.60;;;;;;5113606;28;20055;-82
2022/07/17 12:16:31;;;;;;;3.35;1.30;;;29.70;62.00;;;;;;5099333;27;20494;-80
2022/07/17 12:19:22;;;;;;;4.78;1.33;;;29.50;62.80;;;;;;5134675;27;20050;-81
2022/07/17 12:22:09;;;;;;;3.30;1.33;;;29.40;64.20;;;;;;5116762;27;20401;-82
2022/07/17 12:24:55;;;;;;;3.10;0.93;;;30.00;61.90;;;;;;5102059;27;20482;-82
2022/07/17 12:27:41;;;;;;;3.72;1.48;;;29.70;62.40;;;;;;5114750;27;20051;-82
2022/07/17 12:30:28;;;;;;;2.67;0.90;;;29.50;59.80;;;;;;5134516;27;20047;-82
2022/07/17 12:33:14;;;;;;;4.20;1.48;;;29.70;61.60;;;;;;5100921;27;20137;-82
2022/07/17 12:36:01;;;;;;;4.28;1.50;;;29.70;58.90;;;;;;5118604;27;20054;-81
2022/07/17 12:38:47;;;;;;;3.38;1.35;;;29.80;60.10;;;;;;5133675;27;20051;-80
2022/07/17 12:41:34;;;;;;;4.32;1.75;;;29.90;59.40;;;;;;5134823;27;20039;-82
2022/07/17 12:44:20;;;;;;;4.15;1.58;;;29.80;61.10;;;;;;5134414;27;20074;-83
2022/07/17 12:47:06;;;;;;;4.68;1.60;;;29.60;59.60;;;;;;5133916;27;20047;-81
2022/07/17 12:49:52;;;;;;;4.60;1.55;;;30.20;61.20;;;;;;5135709;27;20047;-80
2022/07/17 12:52:38;;;;;;;4.97;1.42;;;29.80;61.10;;;;;;5134999;27;20047;-82
2022/07/17 12:55:25;;;;;;;7.25;1.70;;;30.00;58.70;;;;;;5118191;27;20055;-81
2022/07/17 12:58:11;;;;;;;4.40;1.40;;;30.00;59.50;;;;;;5114812;27;20059;-80
2022/07/17 13:00:58;;;;;;;5.07;1.80;;;29.80;58.60;;;;;;5115492;27;20055;-83
2022/07/17 13:03:44;;;;;;;3.75;1.60;;;30.00;57.90;;;;;;5131686;27;20050;-82
2022/07/17 13:06:49;;;;;;;3.83;1.70;;;30.50;59.70;;;;;;5134317;27;20033;-82
2022/07/17 13:09:36;;;;;;;4.68;1.42;;;31.10;59.80;;;;;;5131825;27;20062;-81
2022/07/17 13:12:22;;;;;;;3.42;1.42;;;30.90;57.80;;;;;;5133818;27;20047;-80
2022/07/17 13:15:09;;;;;;;4.45;1.38;;;31.30;57.60;;;;;;5114244;27;20263;-80
2022/07/17 13:17:55;;;;;;;3.53;1.02;;;31.10;58.80;;;;;;5137239;27;20126;-83
2022/07/17 13:20:42;;;;;;;4.07;1.20;;;31.60;58.50;;;;;;5134329;27;20130;-81
2022/07/17 13:23:28;;;;;;;4.20;1.30;;;31.50;57.60;;;;;;5133527;27;20046;-83
2022/07/17 13:26:17;;;;;;;5.13;1.23;;;30.90;56.90;;;;;;5116462;27;20108;-79
2022/07/17 13:29:03;;;;;;;2.42;1.00;;;31.00;57.90;;;;;;5131323;27;20213;-81
2022/07/17 13:31:50;;;;;;;4.95;1.00;;;30.90;59.50;;;;;;5133736;27;20043;-82
2022/07/17 13:34:36;;;;;;;3.10;1.42;;;31.50;59.70;;;;;;5132276;27;20096;-80
2022/07/17 13:37:22;;;;;;;4.80;1.10;;;31.30;58.60;;;;;;5100479;27;20509;-82
2022/07/17 13:40:09;;;;;;;3.25;0.98;;;31.50;58.60;;;;;;5133980;27;20062;-80
2022/07/17 13:42:56;;;;;;;2.67;1.10;;;32.40;58.50;;;;;;5114858;27;20483;-80
2022/07/17 13:45:42;;;;;;;4.18;1.23;;;32.00;56.10;;;;;;5132651;27;20430;-80
2022/07/17 13:48:29;;;;;;;4.80;0.93;;;32.20;56.20;;;;;;5131829;27;20039;-81
2022/07/17 13:51:15;;;;;;;4.88;1.27;;;31.80;57.20;;;;;;5132318;27;20043;-81
2022/07/17 13:54:02;;;;;;;3.75;1.33;;;32.30;57.10;;;;;;5131614;27;20126;-80
2022/07/17 13:56:50;;;;;;;3.50;0.80;;;32.80;56.00;;;;;;5109943;28;20050;-80
2022/07/17 13:59:36;;;;;;;4.53;1.52;;;33.20;56.50;;;;;;5097194;28;20044;-83
2022/07/17 14:02:23;;;;;;;4.40;1.40;;;33.50;53.20;;;;;;5110276;28;20054;-80
2022/07/17 14:05:09;;;;;;;3.67;0.80;;;33.60;53.60;;;;;;5111490;28;20039;-82
2022/07/17 14:07:55;;;;;;;3.03;1.25;;;33.70;52.80;;;;;;5109890;28;20057;-81
2022/07/17 14:10:43;;;;;;;4.00;1.48;;;33.70;51.90;;;;;;5111608;28;20051;-79
2022/07/17 14:13:29;;;;;;;4.18;1.10;;;34.20;51.90;;;;;;5111314;28;20058;-78
2022/07/17 14:16:19;;;;;;;3.85;0.82;;;34.90;50.80;;;;;;5112405;28;20039;-82
2022/07/17 14:19:05;;;;;;;3.92;1.35;;;34.30;50.10;;;;;;5111373;28;20116;-80
2022/07/17 14:21:52;;;;;;;3.13;0.90;;;34.20;50.10;;;;;;5112354;28;20048;-79
2022/07/17 14:24:38;;;;;;;4.88;1.13;;;35.00;51.20;;;;;;5111656;28;20142;-80
2022/07/17 14:27:24;;;;;;;5.78;1.58;;;35.50;49.00;;;;;;5110353;28;20048;-80